createdAt,value
2022-12-18T00:01:30.285Z,-6.92
2022-12-18T00:03:58.363Z,-7.06
2022-12-18T00:06:27.805Z,-6.96
2022-12-18T00:08:56.952Z,-7.07
2022-12-18T00:11:27.058Z,-7.06
2022-12-18T00:13:57.472Z,-7.13
2022-12-18T00:16:26.926Z,-6.97
2022-12-18T00:19:01.065Z,-7.28
2022-12-18T00:21:29.621Z,-7.39
2022-12-18T00:23:57.544Z,-7.67
2022-12-18T00:26:27.463Z,-7.50
2022-12-18T00:28:56.541Z,-7.30
2022-12-18T00:31:25.886Z,-7.72
2022-12-18T00:33:57.306Z,-7.88
2022-12-18T00:36:28.569Z,-7.82
2022-12-18T00:38:57.787Z,-7.71
2022-12-18T00:41:43.721Z,-7.69
2022-12-18T00:44:13.681Z,-7.63
2022-12-18T00:46:42.129Z,-7.68
2022-12-18T00:49:14.608Z,-7.60
2022-12-18T00:51:42.512Z,-7.64
2022-12-18T00:54:10.701Z,-7.46
2022-12-18T00:56:48.044Z,-7.19
2022-12-18T00:59:16.601Z,-7.47
2022-12-18T01:01:44.656Z,-7.33
2022-12-18T01:04:13.796Z,-7.38
2022-12-18T01:06:41.922Z,-7.43
2022-12-18T01:09:09.614Z,-7.46
2022-12-18T01:11:37.261Z,-7.51
2022-12-18T01:14:04.901Z,-7.38
2022-12-18T01:16:32.678Z,-7.37
2022-12-18T01:19:00.379Z,-7.24
2022-12-18T01:21:29.535Z,-7.28
2022-12-18T01:23:58.839Z,-7.41
2022-12-18T01:26:30.392Z,-7.40
2022-12-18T01:28:58.482Z,-7.37
2022-12-18T01:31:29.117Z,-7.47
2022-12-18T01:33:58.388Z,-7.32
2022-12-18T01:36:29.835Z,-6.79
2022-12-18T01:38:58.413Z,-6.66
2022-12-18T01:41:48.565Z,-6.80
2022-12-18T01:44:49.596Z,-6.71
2022-12-18T01:47:20.494Z,-6.70
2022-12-18T01:49:48.449Z,-6.74
2022-12-18T01:52:19.884Z,-6.72
2022-12-18T01:54:49.412Z,-6.69
2022-12-18T01:57:17.251Z,-6.88
2022-12-18T01:59:48.830Z,-7.03
2022-12-18T02:02:17.854Z,-6.70
2022-12-18T02:04:49.357Z,-6.80
2022-12-18T02:07:26.797Z,-6.54
2022-12-18T02:10:02.156Z,-6.71
2022-12-18T02:12:36.244Z,-6.58
2022-12-18T02:15:11.680Z,-6.44
2022-12-18T02:17:45.062Z,-6.70
2022-12-18T02:20:18.896Z,-6.90
2022-12-18T02:23:01.681Z,-6.57
2022-12-18T02:25:59.803Z,-6.36
2022-12-18T02:28:34.203Z,-6.29
2022-12-18T02:31:06.577Z,-6.61
2022-12-18T02:33:37.190Z,-6.43
2022-12-18T02:36:05.997Z,-6.38
2022-12-18T02:38:35.770Z,-6.08
2022-12-18T02:41:05.264Z,-6.45
2022-12-18T02:43:34.301Z,-6.23
2022-12-18T02:46:22.985Z,-6.24
2022-12-18T02:48:53.959Z,-6.28
2022-12-18T02:51:31.122Z,-6.10
2022-12-18T02:54:07.940Z,-6.28
2022-12-18T02:56:40.884Z,-6.28
2022-12-18T02:59:15.506Z,-6.41
2022-12-18T03:01:51.236Z,-6.35
2022-12-18T03:04:27.504Z,-6.06
2022-12-18T03:06:58.414Z,-6.11
2022-12-18T03:09:32.319Z,-5.68
2022-12-18T03:12:23.774Z,-5.61
2022-12-18T03:14:58.393Z,-5.93
2022-12-18T03:17:29.117Z,-5.81
2022-12-18T03:20:00.835Z,-6.09
2022-12-18T03:22:31.741Z,-6.19
2022-12-18T03:25:02.028Z,-6.26
2022-12-18T03:27:33.316Z,-6.20
2022-12-18T03:30:08.426Z,-6.13
2022-12-18T03:32:41.865Z,-5.97
2022-12-18T03:35:14.945Z,-6.31
2022-12-18T03:37:42.677Z,-6.14
2022-12-18T03:40:11.310Z,-6.45
2022-12-18T03:42:47.118Z,-6.22
2022-12-18T03:45:24.583Z,-6.46
2022-12-18T03:48:01.589Z,-6.28
2022-12-18T03:50:38.597Z,-6.36
2022-12-18T03:53:17.406Z,-5.95
2022-12-18T03:55:46.881Z,-5.82
2022-12-18T03:58:18.195Z,-5.95
2022-12-18T04:00:49.975Z,-5.70
2022-12-18T04:03:25.454Z,-6.26
2022-12-18T04:05:57.527Z,-5.74
2022-12-18T04:08:26.672Z,-5.52
2022-12-18T04:10:54.499Z,-5.74
2022-12-18T04:13:25.975Z,-5.94
2022-12-18T04:15:55.285Z,-5.64
2022-12-18T04:18:22.961Z,-5.56
2022-12-18T04:20:50.751Z,-5.33
2022-12-18T04:23:18.394Z,-5.43
2022-12-18T04:25:46.078Z,-5.20
2022-12-18T04:28:13.777Z,-5.18
2022-12-18T04:30:41.539Z,-5.14
2022-12-18T04:33:12.072Z,-5.53
2022-12-18T04:35:39.872Z,-5.30
2022-12-18T04:38:07.816Z,-5.16
2022-12-18T04:40:36.652Z,-5.24
2022-12-18T04:43:04.738Z,-5.88
2022-12-18T04:45:32.605Z,-5.43
2022-12-18T04:48:00.282Z,-5.45
2022-12-18T04:50:29.975Z,-5.53
2022-12-18T04:52:58.574Z,-5.71
2022-12-18T04:55:29.441Z,-6.19
2022-12-18T04:57:57.181Z,-5.69
2022-12-18T05:00:24.980Z,-5.47
2022-12-18T05:02:52.873Z,-5.47
2022-12-18T05:05:20.708Z,-5.34
2022-12-18T05:07:49.694Z,-5.34
2022-12-18T05:10:17.665Z,-5.66
2022-12-18T05:15:44.523Z,-5.47
2022-12-18T05:18:12.128Z,-5.45
2022-12-18T05:20:39.771Z,-5.60
2022-12-18T05:23:07.333Z,-5.27
2022-12-18T05:25:34.936Z,-5.15
2022-12-18T05:28:02.505Z,-5.30
2022-12-18T05:30:30.090Z,-5.64
2022-12-18T05:32:58.951Z,-5.22
2022-12-18T05:35:26.553Z,-5.40
2022-12-18T05:37:54.203Z,-5.26
2022-12-18T05:40:21.764Z,-5.36
2022-12-18T05:42:49.330Z,-5.15
2022-12-18T05:45:16.895Z,-5.14
2022-12-18T05:47:44.478Z,-5.47
2022-12-18T05:50:13.384Z,-5.19
2022-12-18T05:52:41.003Z,-5.13
2022-12-18T05:55:09.460Z,-5.21
2022-12-18T05:57:37.110Z,-5.13
2022-12-18T06:00:05.444Z,-5.61
2022-12-18T06:02:33.113Z,-5.33
2022-12-18T06:05:00.786Z,-5.37
2022-12-18T06:07:29.668Z,-5.39
2022-12-18T06:09:57.221Z,-5.42
2022-12-18T06:12:24.768Z,-5.31
2022-12-18T06:14:52.412Z,-5.24
2022-12-18T06:17:19.965Z,-5.39
2022-12-18T06:19:47.529Z,-5.55
2022-12-18T06:22:15.097Z,-5.70
2022-12-18T06:24:43.988Z,-5.88
2022-12-18T06:27:12.304Z,-6.23
2022-12-18T06:29:39.814Z,-6.28
2022-12-18T06:32:07.531Z,-6.08
2022-12-18T06:34:35.099Z,-5.63
2022-12-18T06:37:02.599Z,-5.64
2022-12-18T06:39:30.404Z,-5.64
2022-12-18T06:41:59.264Z,-5.86
2022-12-18T06:44:26.866Z,-6.15
2022-12-18T06:46:54.506Z,-6.01
2022-12-18T06:49:25.036Z,-6.47
2022-12-18T06:51:54.999Z,-5.99
2022-12-18T06:54:22.658Z,-6.13
2022-12-18T06:56:51.545Z,-5.98
2022-12-18T06:59:20.622Z,-5.91
2022-12-18T07:01:48.351Z,-5.97
2022-12-18T07:04:16.069Z,-6.06
2022-12-18T07:06:43.606Z,-5.82
2022-12-18T07:09:11.151Z,-5.89
2022-12-18T07:11:38.707Z,-5.97
2022-12-18T07:14:06.351Z,-6.02
2022-12-18T07:16:35.255Z,-5.99
2022-12-18T07:19:02.799Z,-6.42
2022-12-18T07:21:30.500Z,-6.64
2022-12-18T07:23:58.254Z,-6.21
2022-12-18T07:26:27.193Z,-5.95
2022-12-18T07:28:58.332Z,-6.01
2022-12-18T07:31:27.363Z,-5.80
2022-12-18T07:33:57.257Z,-6.11
2022-12-18T07:36:25.200Z,-6.22
2022-12-18T07:38:53.704Z,-5.76
2022-12-18T07:41:22.045Z,-5.89
2022-12-18T07:43:49.920Z,-5.91
2022-12-18T07:46:18.276Z,-5.77
2022-12-18T07:48:50.062Z,-5.88
2022-12-18T07:51:20.105Z,-5.92
2022-12-18T07:53:49.618Z,-5.74
2022-12-18T07:56:29.504Z,-5.82
2022-12-18T07:58:59.127Z,-5.83
2022-12-18T08:01:27.385Z,-5.79
2022-12-18T08:03:55.104Z,-5.71
2022-12-18T08:06:26.841Z,-5.63
2022-12-18T08:08:55.298Z,-5.74
2022-12-18T08:11:24.039Z,-5.80
2022-12-18T08:13:51.891Z,-5.75
2022-12-18T08:16:20.651Z,-5.59
2022-12-18T08:18:48.702Z,-5.65
2022-12-18T08:21:19.199Z,-5.56
2022-12-18T08:23:51.539Z,-5.79
2022-12-18T08:26:20.009Z,-5.64
2022-12-18T08:28:48.797Z,-5.42
2022-12-18T08:31:17.303Z,-5.33
2022-12-18T08:33:45.042Z,-5.34
2022-12-18T08:36:12.963Z,-5.39
2022-12-18T08:38:40.922Z,-5.31
2022-12-18T08:41:12.473Z,-5.47
2022-12-18T08:43:57.994Z,-5.45
2022-12-18T08:46:27.770Z,-5.38
2022-12-18T08:48:56.508Z,-5.39
2022-12-18T08:51:24.076Z,-5.34
2022-12-18T08:53:51.738Z,-5.33
2022-12-18T08:56:20.825Z,-5.26
2022-12-18T08:58:48.524Z,-5.36
2022-12-18T09:01:16.212Z,-5.51
2022-12-18T09:03:44.403Z,-5.50
2022-12-18T09:06:16.552Z,-5.39
2022-12-18T09:08:44.566Z,-5.31
2022-12-18T09:11:24.084Z,-5.28
2022-12-18T09:13:52.644Z,-5.17
2022-12-18T09:16:21.481Z,-5.19
2022-12-18T09:18:50.141Z,-5.15
2022-12-18T09:21:20.652Z,-5.46
2022-12-18T09:23:51.461Z,-5.34
2022-12-18T09:26:19.137Z,-5.48
2022-12-18T09:28:48.057Z,-5.00
2022-12-18T09:31:20.466Z,-4.80
2022-12-18T09:33:48.107Z,-4.88
2022-12-18T09:36:18.495Z,-4.93
2022-12-18T09:38:46.158Z,-5.01
2022-12-18T09:41:30.696Z,-5.06
2022-12-18T09:44:04.173Z,-5.07
2022-12-18T09:46:36.691Z,-5.15
2022-12-18T09:49:09.466Z,-4.83
2022-12-18T09:51:41.565Z,-5.10
2022-12-18T09:54:14.922Z,-4.73
2022-12-18T09:56:45.173Z,-4.84
2022-12-18T09:59:23.187Z,-4.67
2022-12-18T10:01:50.904Z,-4.70
2022-12-18T10:04:18.658Z,-4.76
2022-12-18T10:06:52.238Z,-4.37
2022-12-18T10:09:31.716Z,-4.32
2022-12-18T10:12:09.561Z,-4.31
2022-12-18T10:14:48.614Z,-4.49
2022-12-18T10:17:26.481Z,-4.21
2022-12-18T10:19:58.359Z,-4.29
2022-12-18T10:22:40.812Z,-4.58
2022-12-18T10:25:19.599Z,-4.40
2022-12-18T10:27:47.354Z,-4.58
2022-12-18T10:30:18.904Z,-4.49
2022-12-18T10:32:46.514Z,-4.18
2022-12-18T10:35:20.404Z,-4.23
2022-12-18T10:38:22.512Z,-4.31
2022-12-18T10:40:53.492Z,-4.02
2022-12-18T10:43:27.538Z,-4.21
2022-12-18T10:46:16.514Z,-3.79
2022-12-18T10:48:53.985Z,-3.67
2022-12-18T10:51:24.278Z,-3.99
2022-12-18T10:53:58.972Z,-4.39
2022-12-18T10:56:29.072Z,-4.29
2022-12-18T10:59:02.402Z,-4.55
2022-12-18T11:01:46.813Z,-4.49
2022-12-18T11:04:19.355Z,-4.55
2022-12-18T11:06:59.761Z,-4.55
2022-12-18T11:09:29.446Z,-5.06
2022-12-18T11:12:00.064Z,-4.61
2022-12-18T11:14:29.759Z,-4.13
2022-12-18T11:19:55.454Z,-4.66
2022-12-18T11:22:28.447Z,-4.36
2022-12-18T11:27:53.158Z,-4.01
2022-12-18T11:30:25.667Z,-4.30
2022-12-18T11:32:59.660Z,-4.09
2022-12-18T11:35:37.589Z,-4.07
2022-12-18T11:38:23.774Z,-3.94
2022-12-18T11:40:57.183Z,-4.24
2022-12-18T11:43:29.869Z,-3.97
2022-12-18T11:46:02.725Z,-4.07
2022-12-18T11:48:36.342Z,-3.81
2022-12-18T11:51:07.592Z,-3.84
2022-12-18T11:53:38.969Z,-3.87
2022-12-18T11:56:18.386Z,-4.01
2022-12-18T11:58:49.524Z,-3.83
2022-12-18T12:01:29.451Z,-4.07
2022-12-18T12:04:28.458Z,-3.97
2022-12-18T12:07:06.244Z,-3.77
2022-12-18T12:09:43.086Z,-3.67
2022-12-18T12:12:27.849Z,-3.75
2022-12-18T12:15:04.453Z,-3.78
2022-12-18T12:17:40.020Z,-3.54
2022-12-18T12:20:18.794Z,-3.55
2022-12-18T12:22:55.194Z,-3.79
2022-12-18T12:25:40.609Z,-3.52
2022-12-18T12:28:20.260Z,-3.80
2022-12-18T12:30:59.106Z,-3.90
2022-12-18T12:33:39.269Z,-4.07
2022-12-18T12:36:17.996Z,-3.86
2022-12-18T12:38:52.383Z,-3.73
2022-12-18T12:41:41.993Z,-3.61
2022-12-18T12:44:16.834Z,-3.42
2022-12-18T12:46:45.885Z,-3.69
2022-12-18T12:49:17.943Z,-3.69
2022-12-18T12:51:55.431Z,-3.55
2022-12-18T12:54:28.664Z,-3.44
2022-12-18T12:57:04.230Z,-3.44
2022-12-18T12:59:41.081Z,-3.13
2022-12-18T13:02:23.933Z,-2.89
2022-12-18T13:04:59.897Z,-3.48
2022-12-18T13:07:36.078Z,-3.13
2022-12-18T13:10:17.475Z,-3.23
2022-12-18T13:13:00.233Z,-3.58
2022-12-18T13:15:36.711Z,-3.56
2022-12-18T13:18:23.543Z,-3.45
2022-12-18T13:20:58.579Z,-3.60
2022-12-18T13:23:37.322Z,-3.92
2022-12-18T13:26:33.896Z,-3.71
2022-12-18T13:29:05.074Z,-3.46
2022-12-18T13:32:09.696Z,-3.21
2022-12-18T13:34:38.420Z,-3.36
2022-12-18T13:37:43.459Z,-3.27
2022-12-18T13:40:59.229Z,-3.12
2022-12-18T13:43:36.240Z,-3.07
2022-12-18T13:46:07.414Z,-3.17
2022-12-18T13:48:37.923Z,-3.35
2022-12-18T13:51:08.327Z,-3.35
2022-12-18T13:53:40.904Z,-3.11
2022-12-18T13:56:09.466Z,-3.17
2022-12-18T13:58:38.709Z,-2.90
2022-12-18T14:01:06.817Z,-2.87
2022-12-18T14:03:35.555Z,-2.89
2022-12-18T14:06:09.025Z,-2.96
2022-12-18T14:08:41.336Z,-2.69
2022-12-18T14:11:22.115Z,-2.66
2022-12-18T14:13:52.252Z,-2.58
2022-12-18T14:16:20.232Z,-2.81
2022-12-18T14:18:50.928Z,-2.58
2022-12-18T14:21:27.969Z,-2.54
2022-12-18T14:24:07.047Z,-2.50
2022-12-18T14:26:35.212Z,-2.55
2022-12-18T14:29:22.776Z,-2.45
2022-12-18T14:32:06.944Z,-2.67
2022-12-18T14:34:35.938Z,-2.56
2022-12-18T14:37:03.578Z,-2.62
2022-12-18T14:39:31.132Z,-2.55
2022-12-18T14:41:58.719Z,-2.46
2022-12-18T14:44:34.532Z,-2.35
2022-12-18T14:47:06.983Z,-2.59
2022-12-18T14:49:37.670Z,-2.55
2022-12-18T14:52:07.562Z,-2.49
2022-12-18T14:54:39.174Z,-2.77
2022-12-18T14:57:18.403Z,-2.83
2022-12-18T14:59:47.268Z,-2.99
2022-12-18T15:02:22.922Z,-2.99
2022-12-18T15:05:02.021Z,-3.05
2022-12-18T15:07:41.585Z,-2.96
2022-12-18T15:10:13.419Z,-3.12
2022-12-18T15:12:43.406Z,-3.33
2022-12-18T15:15:49.372Z,-3.14
2022-12-18T15:18:20.901Z,-2.94
2022-12-18T15:20:50.715Z,-2.81
2022-12-18T15:23:23.580Z,-2.79
2022-12-18T15:25:57.476Z,-2.95
2022-12-18T15:28:27.221Z,-2.98
2022-12-18T15:31:05.052Z,-3.09
2022-12-18T15:33:35.560Z,-2.80
2022-12-18T15:36:05.143Z,-2.79
2022-12-18T15:38:33.382Z,-2.84
2022-12-18T15:41:01.319Z,-3.01
2022-12-18T15:43:37.759Z,-2.94
2022-12-18T15:46:09.025Z,-2.94
2022-12-18T15:48:40.637Z,-3.00
2022-12-18T15:51:15.724Z,-3.14
2022-12-18T15:53:44.028Z,-2.90
2022-12-18T15:56:30.768Z,-2.84
2022-12-18T15:58:58.349Z,-2.73
2022-12-18T16:01:29.464Z,-2.75
2022-12-18T16:03:57.953Z,-2.93
2022-12-18T16:06:25.713Z,-2.88
2022-12-18T16:08:53.239Z,-2.83
2022-12-18T16:11:38.905Z,-2.82
2022-12-18T16:14:18.834Z,-2.88
2022-12-18T16:16:49.207Z,-2.54
2022-12-18T16:19:17.052Z,-2.48
2022-12-18T16:21:45.543Z,-2.44
2022-12-18T16:24:17.160Z,-2.66
2022-12-18T16:26:45.242Z,-2.51
2022-12-18T16:29:12.905Z,-2.52
2022-12-18T16:31:40.477Z,-2.72
2022-12-18T16:34:22.745Z,-2.65
2022-12-18T16:36:51.420Z,-2.95
2022-12-18T16:39:19.318Z,-2.77
2022-12-18T16:41:47.044Z,-2.59
2022-12-18T16:44:15.231Z,-2.55
2022-12-18T16:46:44.447Z,-2.75
2022-12-18T16:49:12.065Z,-2.62
2022-12-18T16:51:41.297Z,-2.43
2022-12-18T16:54:11.016Z,-2.51
2022-12-18T16:56:42.755Z,-2.53
2022-12-18T16:59:13.132Z,-2.42
2022-12-18T17:01:41.893Z,-2.49
2022-12-18T17:04:10.274Z,-2.44
2022-12-18T17:06:44.396Z,-2.35
2022-12-18T17:09:14.739Z,-2.71
2022-12-18T17:11:42.958Z,-2.41
2022-12-18T17:14:18.768Z,-2.60
2022-12-18T17:16:46.469Z,-2.58
2022-12-18T17:19:17.407Z,-2.76
2022-12-18T17:21:50.155Z,-2.56
2022-12-18T17:24:18.724Z,-2.41
2022-12-18T17:26:46.866Z,-2.64
2022-12-18T17:29:18.264Z,-2.46
2022-12-18T17:31:47.408Z,-2.57
2022-12-18T17:34:15.590Z,-2.66
2022-12-18T17:36:44.036Z,-2.55
2022-12-18T17:39:19.070Z,-2.47
2022-12-18T17:41:47.005Z,-2.37
2022-12-18T17:44:14.604Z,-2.39
2022-12-18T17:46:42.624Z,-2.48
2022-12-18T17:49:11.235Z,-2.47
2022-12-18T17:51:38.937Z,-2.44
2022-12-18T17:54:06.681Z,-2.39
2022-12-18T17:56:35.678Z,-2.46
2022-12-18T17:59:03.646Z,-2.40
2022-12-18T18:01:31.492Z,-2.24
2022-12-18T18:04:00.297Z,-2.36
2022-12-18T18:06:28.043Z,-2.29
2022-12-18T18:08:55.663Z,-2.22
2022-12-18T18:11:42.557Z,-2.48
2022-12-18T18:14:16.951Z,-2.26
2022-12-18T18:16:46.831Z,-2.34
2022-12-18T18:19:17.309Z,-2.34
2022-12-18T18:21:48.365Z,-2.33
2022-12-18T18:24:18.543Z,-2.50
2022-12-18T18:26:47.323Z,-2.34
2022-12-18T18:29:19.071Z,-2.25
2022-12-18T18:31:47.091Z,-2.12
2022-12-18T18:34:16.145Z,-2.26
2022-12-18T18:36:43.832Z,-2.30
2022-12-18T18:39:11.449Z,-2.12
2022-12-18T18:41:39.257Z,-2.24
2022-12-18T18:44:06.857Z,-2.20
2022-12-18T18:46:35.742Z,-2.26
2022-12-18T18:49:03.328Z,-2.28
2022-12-18T18:51:34.787Z,-1.95
2022-12-18T18:54:03.183Z,-2.13
2022-12-18T18:59:19.369Z,-1.88
2022-12-18T19:01:52.673Z,-2.15
2022-12-18T19:04:20.788Z,-2.35
2022-12-18T19:06:49.332Z,-1.99
2022-12-18T19:09:17.190Z,-1.93
2022-12-18T19:12:02.297Z,-2.16
2022-12-18T19:14:30.208Z,-1.96
2022-12-18T19:17:00.422Z,-1.96
2022-12-18T19:19:29.234Z,-1.83
2022-12-18T19:21:57.460Z,-1.80
2022-12-18T19:24:25.234Z,-1.69
2022-12-18T19:26:56.836Z,-1.78
2022-12-18T19:29:27.479Z,-1.64
2022-12-18T19:31:55.962Z,-1.72
2022-12-18T19:34:26.808Z,-1.76
2022-12-18T19:36:59.718Z,-1.90
2022-12-18T19:39:28.475Z,-1.94
2022-12-18T19:41:56.517Z,-2.05
2022-12-18T19:44:24.226Z,-2.00
2022-12-18T19:46:52.796Z,-1.98
2022-12-18T19:49:20.595Z,-1.94
2022-12-18T19:51:53.320Z,-2.07
2022-12-18T19:54:21.059Z,-2.11
2022-12-18T19:56:48.861Z,-1.93
2022-12-18T19:59:17.105Z,-2.03
2022-12-18T20:01:45.021Z,-2.08
2022-12-18T20:04:13.007Z,-1.96
2022-12-18T20:06:48.756Z,-2.02
2022-12-18T20:09:18.616Z,-1.91
2022-12-18T20:11:47.457Z,-1.96
2022-12-18T20:14:22.799Z,-1.86
2022-12-18T20:16:51.494Z,-1.79
2022-12-18T20:19:19.875Z,-1.74
2022-12-18T20:21:49.162Z,-2.01
2022-12-18T20:24:18.226Z,-1.67
2022-12-18T20:26:45.991Z,-1.66
2022-12-18T20:29:13.734Z,-1.64
2022-12-18T20:31:42.071Z,-1.65
2022-12-18T20:34:09.773Z,-1.82
2022-12-18T20:36:38.739Z,-1.70
2022-12-18T20:39:09.849Z,-1.52
2022-12-18T20:41:40.339Z,-1.45
2022-12-18T20:44:22.726Z,-1.42
2022-12-18T20:46:53.581Z,-1.49
2022-12-18T20:49:21.665Z,-1.43
2022-12-18T20:51:52.219Z,-1.44
2022-12-18T20:54:19.902Z,-1.53
2022-12-18T20:56:48.792Z,-1.64
2022-12-18T20:59:16.688Z,-1.71
2022-12-18T21:01:48.742Z,-1.79
2022-12-18T21:04:18.433Z,-1.74
2022-12-18T21:06:50.939Z,-1.73
2022-12-18T21:09:20.694Z,-1.61
2022-12-18T21:12:07.466Z,-1.79
2022-12-18T21:14:35.456Z,-1.55
2022-12-18T21:17:03.087Z,-1.72
2022-12-18T21:19:30.771Z,-1.52
2022-12-18T21:21:58.799Z,-1.61
2022-12-18T21:24:26.741Z,-1.76
2022-12-18T21:27:00.241Z,-1.67
2022-12-18T21:29:28.001Z,-1.63
2022-12-18T21:31:56.119Z,-1.71
2022-12-18T21:34:26.427Z,-1.73
2022-12-18T21:36:54.820Z,-1.60
2022-12-18T21:39:23.353Z,-1.67
2022-12-18T21:42:09.495Z,-1.61
2022-12-18T21:44:42.274Z,-1.76
2022-12-18T21:47:21.570Z,-1.67
2022-12-18T21:49:51.045Z,-1.72
2022-12-18T21:52:18.831Z,-1.77
2022-12-18T21:54:46.489Z,-1.61
2022-12-18T21:57:14.311Z,-1.66
2022-12-18T21:59:44.240Z,-1.74
2022-12-18T22:02:15.135Z,-1.68
2022-12-18T22:04:43.805Z,-1.64
2022-12-18T22:07:12.040Z,-1.67
2022-12-18T22:09:39.791Z,-1.80
2022-12-18T22:12:08.893Z,-1.74
2022-12-18T22:14:36.595Z,-1.58
2022-12-18T22:17:05.523Z,-1.54
2022-12-18T22:19:36.756Z,-1.63
2022-12-18T22:22:10.353Z,-1.64
2022-12-18T22:24:37.946Z,-1.62
2022-12-18T22:27:05.484Z,-1.54
2022-12-18T22:29:50.731Z,-1.48
2022-12-18T22:32:29.426Z,-1.59
2022-12-18T22:35:04.952Z,-1.67
2022-12-18T22:37:34.782Z,-1.57
2022-12-18T22:40:03.103Z,-1.67
2022-12-18T22:42:32.513Z,-1.65
2022-12-18T22:45:00.567Z,-1.58
2022-12-18T22:47:30.613Z,-1.68
2022-12-18T22:49:58.650Z,-1.70
2022-12-18T22:52:26.686Z,-1.64
2022-12-18T22:54:54.527Z,-1.50
2022-12-18T22:57:22.547Z,-1.49
2022-12-18T22:59:50.121Z,-1.72
2022-12-18T23:02:18.878Z,-1.56
2022-12-18T23:04:48.568Z,-1.63
2022-12-18T23:07:16.868Z,-1.60
2022-12-18T23:09:44.918Z,-1.58
2022-12-18T23:12:17.025Z,-1.48
2022-12-18T23:14:44.958Z,-1.37
2022-12-18T23:17:12.524Z,-1.37
2022-12-18T23:19:45.458Z,-1.38
2022-12-18T23:22:17.682Z,-1.50
2022-12-18T23:24:45.431Z,-1.35
2022-12-18T23:27:12.979Z,-1.70
2022-12-18T23:29:40.906Z,-1.78
2022-12-18T23:32:09.070Z,-1.85
2022-12-18T23:34:36.652Z,-1.75
2022-12-18T23:37:04.553Z,-1.63
2022-12-18T23:39:33.470Z,-1.73
2022-12-18T23:42:01.549Z,-1.77
2022-12-18T23:44:29.181Z,-1.66
2022-12-18T23:46:56.896Z,-1.67
2022-12-18T23:49:24.546Z,-1.75
2022-12-18T23:51:54.729Z,-1.72
2022-12-18T23:54:22.722Z,-1.72
2022-12-18T23:57:02.547Z,-1.70
2022-12-18T23:59:30.120Z,-1.71
